sensor_id;sensor_type;location;lat;lon;timestamp;temperature;humidity
22813;DHT22;11573;51.334;3.244;2023-12-29T00:00:07;10.80;99.90
22813;DHT22;11573;51.334;3.244;2023-12-29T00:02:37;10.70;99.90
22813;DHT22;11573;51.334;3.244;2023-12-29T00:05:05;10.60;99.90
22813;DHT22;11573;51.334;3.244;2023-12-29T00:07:32;10.50;99.90
22813;DHT22;11573;51.334;3.244;2023-12-29T00:10:00;10.40;99.90
22813;DHT22;11573;51.334;3.244;2023-12-29T00:12:27;10.30;99.90
22813;DHT22;11573;51.334;3.244;2023-12-29T00:14:54;10.30;99.90
22813;DHT22;11573;51.334;3.244;2023-12-29T00:17:22;10.30;99.90
22813;DHT22;11573;51.334;3.244;2023-12-29T00:19:49;10.40;99.90
22813;DHT22;11573;51.334;3.244;2023-12-29T00:22:17;10.40;99.90
22813;DHT22;11573;51.334;3.244;2023-12-29T00:24:44;10.40;99.90
22813;DHT22;11573;51.334;3.244;2023-12-29T00:27:13;10.30;99.90
22813;DHT22;11573;51.334;3.244;2023-12-29T00:29:40;10.30;99.90
22813;DHT22;11573;51.334;3.244;2023-12-29T00:32:07;10.30;99.90
22813;DHT22;11573;51.334;3.244;2023-12-29T00:34:35;10.30;99.90
22813;DHT22;11573;51.334;3.244;2023-12-29T00:37:06;10.40;99.90
22813;DHT22;11573;51.334;3.244;2023-12-29T00:39:33;10.30;99.90
22813;DHT22;11573;51.334;3.244;2023-12-29T00:42:06;10.30;99.90
22813;DHT22;11573;51.334;3.244;2023-12-29T00:44:34;10.30;99.90
22813;DHT22;11573;51.334;3.244;2023-12-29T00:47:02;10.30;99.90
22813;DHT22;11573;51.334;3.244;2023-12-29T00:49:29;10.30;99.90
22813;DHT22;11573;51.334;3.244;2023-12-29T00:51:58;10.40;99.90
22813;DHT22;11573;51.334;3.244;2023-12-29T00:54:25;10.40;99.90
22813;DHT22;11573;51.334;3.244;2023-12-29T00:56:56;10.40;99.90
22813;DHT22;11573;51.334;3.244;2023-12-29T00:59:23;10.40;99.90
22813;DHT22;11573;51.334;3.244;2023-12-29T01:01:51;10.50;99.90
22813;DHT22;11573;51.334;3.244;2023-12-29T01:04:18;10.50;99.90
22813;DHT22;11573;51.334;3.244;2023-12-29T01:06:46;10.50;99.90
22813;DHT22;11573;51.334;3.244;2023-12-29T01:09:15;10.60;99.90
22813;DHT22;11573;51.334;3.244;2023-12-29T01:11:42;10.60;99.90
22813;DHT22;11573;51.334;3.244;2023-12-29T01:14:10;10.60;99.90
22813;DHT22;11573;51.334;3.244;2023-12-29T01:16:37;10.70;99.90
22813;DHT22;11573;51.334;3.244;2023-12-29T01:19:04;10.70;99.90
22813;DHT22;11573;51.334;3.244;2023-12-29T01:21:32;10.70;99.90
22813;DHT22;11573;51.334;3.244;2023-12-29T01:24:01;10.80;99.90
22813;DHT22;11573;51.334;3.244;2023-12-29T01:26:30;10.70;99.90
22813;DHT22;11573;51.334;3.244;2023-12-29T01:28:58;10.70;99.90
22813;DHT22;11573;51.334;3.244;2023-12-29T01:31:29;10.80;99.90
22813;DHT22;11573;51.334;3.244;2023-12-29T01:33:58;10.80;99.90
22813;DHT22;11573;51.334;3.244;2023-12-29T01:36:26;10.80;99.90
22813;DHT22;11573;51.334;3.244;2023-12-29T01:38:53;10.80;99.90
22813;DHT22;11573;51.334;3.244;2023-12-29T01:41:22;10.80;99.90
22813;DHT22;11573;51.334;3.244;2023-12-29T01:46:31;10.80;99.90
22813;DHT22;11573;51.334;3.244;2023-12-29T01:49:01;10.80;99.90
22813;DHT22;11573;51.334;3.244;2023-12-29T01:51:29;10.80;99.90
22813;DHT22;11573;51.334;3.244;2023-12-29T01:53:58;10.80;99.90
22813;DHT22;11573;51.334;3.244;2023-12-29T01:56:26;10.80;99.90
22813;DHT22;11573;51.334;3.244;2023-12-29T01:58:55;10.80;99.90
22813;DHT22;11573;51.334;3.244;2023-12-29T02:01:35;10.70;99.90
22813;DHT22;11573;51.334;3.244;2023-12-29T02:04:05;10.70;99.90
22813;DHT22;11573;51.334;3.244;2023-12-29T02:06:34;10.70;99.90
22813;DHT22;11573;51.334;3.244;2023-12-29T02:09:02;10.70;99.90
22813;DHT22;11573;51.334;3.244;2023-12-29T02:11:31;10.70;99.90
22813;DHT22;11573;51.334;3.244;2023-12-29T02:14:00;10.80;99.90
22813;DHT22;11573;51.334;3.244;2023-12-29T02:16:38;10.80;99.90
22813;DHT22;11573;51.334;3.244;2023-12-29T02:19:19;10.80;99.90
22813;DHT22;11573;51.334;3.244;2023-12-29T02:21:48;10.80;99.90
22813;DHT22;11573;51.334;3.244;2023-12-29T02:24:15;10.90;99.90
22813;DHT22;11573;51.334;3.244;2023-12-29T02:26:45;10.90;99.90
22813;DHT22;11573;51.334;3.244;2023-12-29T02:29:16;11.00;99.90
22813;DHT22;11573;51.334;3.244;2023-12-29T02:31:51;11.00;99.90
22813;DHT22;11573;51.334;3.244;2023-12-29T02:34:20;11.00;99.90
22813;DHT22;11573;51.334;3.244;2023-12-29T02:36:50;11.00;99.90
22813;DHT22;11573;51.334;3.244;2023-12-29T02:39:18;11.00;99.90
22813;DHT22;11573;51.334;3.244;2023-12-29T02:41:46;11.00;99.90
22813;DHT22;11573;51.334;3.244;2023-12-29T02:44:14;11.10;99.90
22813;DHT22;11573;51.334;3.244;2023-12-29T02:46:41;11.10;99.90
22813;DHT22;11573;51.334;3.244;2023-12-29T02:49:08;11.10;99.90
22813;DHT22;11573;51.334;3.244;2023-12-29T02:51:40;11.10;99.90
22813;DHT22;11573;51.334;3.244;2023-12-29T02:54:07;11.10;99.90
22813;DHT22;11573;51.334;3.244;2023-12-29T02:56:34;11.00;99.90
22813;DHT22;11573;51.334;3.244;2023-12-29T02:59:02;11.00;99.90
22813;DHT22;11573;51.334;3.244;2023-12-29T03:01:30;10.90;99.90
22813;DHT22;11573;51.334;3.244;2023-12-29T03:03:57;10.90;99.90
22813;DHT22;11573;51.334;3.244;2023-12-29T03:06:25;10.80;99.90
22813;DHT22;11573;51.334;3.244;2023-12-29T03:08:52;10.80;99.90
22813;DHT22;11573;51.334;3.244;2023-12-29T03:11:20;10.70;99.90
22813;DHT22;11573;51.334;3.244;2023-12-29T03:13:48;10.70;99.90
22813;DHT22;11573;51.334;3.244;2023-12-29T03:16:15;10.60;99.90
22813;DHT22;11573;51.334;3.244;2023-12-29T03:18:42;10.60;99.90
22813;DHT22;11573;51.334;3.244;2023-12-29T03:21:12;10.60;99.90
22813;DHT22;11573;51.334;3.244;2023-12-29T03:23:39;10.50;99.90
22813;DHT22;11573;51.334;3.244;2023-12-29T03:26:07;10.50;99.90
22813;DHT22;11573;51.334;3.244;2023-12-29T03:28:34;10.40;99.90
22813;DHT22;11573;51.334;3.244;2023-12-29T03:31:01;10.40;99.90
22813;DHT22;11573;51.334;3.244;2023-12-29T03:33:29;10.30;99.90
22813;DHT22;11573;51.334;3.244;2023-12-29T03:35:58;10.30;99.90
22813;DHT22;11573;51.334;3.244;2023-12-29T03:38:26;10.30;99.90
22813;DHT22;11573;51.334;3.244;2023-12-29T03:40:53;10.30;99.90
22813;DHT22;11573;51.334;3.244;2023-12-29T03:43:20;10.30;99.90
22813;DHT22;11573;51.334;3.244;2023-12-29T03:45:48;10.30;99.90
22813;DHT22;11573;51.334;3.244;2023-12-29T03:48:15;10.30;99.90
22813;DHT22;11573;51.334;3.244;2023-12-29T03:50:43;10.30;99.90
22813;DHT22;11573;51.334;3.244;2023-12-29T03:53:10;10.20;99.90
22813;DHT22;11573;51.334;3.244;2023-12-29T03:55:37;10.20;99.90
22813;DHT22;11573;51.334;3.244;2023-12-29T03:58:05;10.20;99.90
22813;DHT22;11573;51.334;3.244;2023-12-29T04:00:33;10.10;99.90
22813;DHT22;11573;51.334;3.244;2023-12-29T04:03:00;10.10;99.90
22813;DHT22;11573;51.334;3.244;2023-12-29T04:05:28;10.00;99.90
22813;DHT22;11573;51.334;3.244;2023-12-29T04:07:55;10.00;99.90
22813;DHT22;11573;51.334;3.244;2023-12-29T04:10:22;9.90;99.90
22813;DHT22;11573;51.334;3.244;2023-12-29T04:12:50;10.00;99.90
22813;DHT22;11573;51.334;3.244;2023-12-29T04:15:17;10.00;99.90
22813;DHT22;11573;51.334;3.244;2023-12-29T04:17:45;10.10;99.90
22813;DHT22;11573;51.334;3.244;2023-12-29T04:20:13;10.10;99.90
22813;DHT22;11573;51.334;3.244;2023-12-29T04:22:40;10.20;99.90
22813;DHT22;11573;51.334;3.244;2023-12-29T04:25:08;10.30;99.90
22813;DHT22;11573;51.334;3.244;2023-12-29T04:27:36;10.40;99.90
22813;DHT22;11573;51.334;3.244;2023-12-29T04:30:03;10.40;99.90
22813;DHT22;11573;51.334;3.244;2023-12-29T04:32:31;10.40;99.90
22813;DHT22;11573;51.334;3.244;2023-12-29T04:34:58;10.40;99.90
22813;DHT22;11573;51.334;3.244;2023-12-29T04:37:26;10.50;99.90
22813;DHT22;11573;51.334;3.244;2023-12-29T04:39:53;10.50;99.90
22813;DHT22;11573;51.334;3.244;2023-12-29T04:42:20;10.50;99.90
22813;DHT22;11573;51.334;3.244;2023-12-29T04:44:48;10.60;99.90
22813;DHT22;11573;51.334;3.244;2023-12-29T04:47:15;10.60;99.90
22813;DHT22;11573;51.334;3.244;2023-12-29T04:49:44;10.60;99.90
22813;DHT22;11573;51.334;3.244;2023-12-29T04:52:12;10.60;99.90
22813;DHT22;11573;51.334;3.244;2023-12-29T04:54:39;10.60;99.90
22813;DHT22;11573;51.334;3.244;2023-12-29T04:57:07;10.60;99.90
22813;DHT22;11573;51.334;3.244;2023-12-29T04:59:34;10.60;99.90
22813;DHT22;11573;51.334;3.244;2023-12-29T05:02:02;10.70;99.90
22813;DHT22;11573;51.334;3.244;2023-12-29T05:04:29;10.70;99.90
22813;DHT22;11573;51.334;3.244;2023-12-29T05:06:56;10.70;99.90
22813;DHT22;11573;51.334;3.244;2023-12-29T05:09:24;10.70;99.90
22813;DHT22;11573;51.334;3.244;2023-12-29T05:11:51;10.70;99.90
22813;DHT22;11573;51.334;3.244;2023-12-29T05:14:18;10.60;99.90
22813;DHT22;11573;51.334;3.244;2023-12-29T05:16:45;10.60;99.90
22813;DHT22;11573;51.334;3.244;2023-12-29T05:19:13;10.60;99.90
22813;DHT22;11573;51.334;3.244;2023-12-29T05:21:40;10.60;99.90
22813;DHT22;11573;51.334;3.244;2023-12-29T05:24:09;10.50;99.90
22813;DHT22;11573;51.334;3.244;2023-12-29T05:26:36;10.60;99.90
22813;DHT22;11573;51.334;3.244;2023-12-29T05:29:03;10.60;99.90
22813;DHT22;11573;51.334;3.244;2023-12-29T05:31:30;10.60;99.90
22813;DHT22;11573;51.334;3.244;2023-12-29T05:33:58;10.60;99.90
22813;DHT22;11573;51.334;3.244;2023-12-29T05:36:25;10.60;99.90
22813;DHT22;11573;51.334;3.244;2023-12-29T05:38:53;10.60;99.90
22813;DHT22;11573;51.334;3.244;2023-12-29T05:41:20;10.60;99.90
22813;DHT22;11573;51.334;3.244;2023-12-29T05:43:47;10.60;99.90
22813;DHT22;11573;51.334;3.244;2023-12-29T05:46:14;10.60;99.90
22813;DHT22;11573;51.334;3.244;2023-12-29T05:48:42;10.60;99.90
22813;DHT22;11573;51.334;3.244;2023-12-29T05:51:10;10.50;99.90
22813;DHT22;11573;51.334;3.244;2023-12-29T05:53:39;10.50;99.90
22813;DHT22;11573;51.334;3.244;2023-12-29T05:56:07;10.60;99.90
22813;DHT22;11573;51.334;3.244;2023-12-29T05:58:34;10.60;99.90
22813;DHT22;11573;51.334;3.244;2023-12-29T06:01:01;10.50;99.90
22813;DHT22;11573;51.334;3.244;2023-12-29T06:03:29;10.60;99.90
22813;DHT22;11573;51.334;3.244;2023-12-29T06:05:57;10.60;99.90
22813;DHT22;11573;51.334;3.244;2023-12-29T06:08:24;10.60;99.90
22813;DHT22;11573;51.334;3.244;2023-12-29T06:10:51;10.60;99.90
22813;DHT22;11573;51.334;3.244;2023-12-29T06:13:18;10.70;99.90
22813;DHT22;11573;51.334;3.244;2023-12-29T06:15:46;10.70;99.90
22813;DHT22;11573;51.334;3.244;2023-12-29T06:18:13;10.70;99.90
22813;DHT22;11573;51.334;3.244;2023-12-29T06:20:41;10.60;99.90
22813;DHT22;11573;51.334;3.244;2023-12-29T06:23:08;10.60;99.90
22813;DHT22;11573;51.334;3.244;2023-12-29T06:25:35;10.60;99.90
22813;DHT22;11573;51.334;3.244;2023-12-29T06:28:05;10.70;99.90
22813;DHT22;11573;51.334;3.244;2023-12-29T06:30:33;10.70;99.90
22813;DHT22;11573;51.334;3.244;2023-12-29T06:33:01;10.70;99.90
22813;DHT22;11573;51.334;3.244;2023-12-29T06:35:29;10.70;99.90
22813;DHT22;11573;51.334;3.244;2023-12-29T06:37:56;10.70;99.90
22813;DHT22;11573;51.334;3.244;2023-12-29T06:40:24;10.70;99.90
22813;DHT22;11573;51.334;3.244;2023-12-29T06:42:51;10.70;99.90
22813;DHT22;11573;51.334;3.244;2023-12-29T06:45:19;10.70;99.90
22813;DHT22;11573;51.334;3.244;2023-12-29T06:47:46;10.70;99.90
22813;DHT22;11573;51.334;3.244;2023-12-29T06:50:13;10.70;99.90
22813;DHT22;11573;51.334;3.244;2023-12-29T06:52:41;10.60;99.90
22813;DHT22;11573;51.334;3.244;2023-12-29T06:55:08;10.60;99.90
22813;DHT22;11573;51.334;3.244;2023-12-29T06:57:36;10.60;99.90
22813;DHT22;11573;51.334;3.244;2023-12-29T07:00:04;10.60;99.90
22813;DHT22;11573;51.334;3.244;2023-12-29T07:02:32;10.70;99.90
22813;DHT22;11573;51.334;3.244;2023-12-29T07:04:59;10.60;99.90
22813;DHT22;11573;51.334;3.244;2023-12-29T07:07:27;10.70;99.90
22813;DHT22;11573;51.334;3.244;2023-12-29T07:09:54;10.60;99.90
22813;DHT22;11573;51.334;3.244;2023-12-29T07:12:21;10.60;99.90
22813;DHT22;11573;51.334;3.244;2023-12-29T07:14:49;10.60;99.90
22813;DHT22;11573;51.334;3.244;2023-12-29T07:17:16;10.60;99.90
22813;DHT22;11573;51.334;3.244;2023-12-29T07:19:43;10.60;99.90
22813;DHT22;11573;51.334;3.244;2023-12-29T07:22:11;10.60;99.90
22813;DHT22;11573;51.334;3.244;2023-12-29T07:24:38;10.60;99.90
22813;DHT22;11573;51.334;3.244;2023-12-29T07:27:06;10.60;99.90
22813;DHT22;11573;51.334;3.244;2023-12-29T07:29:34;10.50;99.90
22813;DHT22;11573;51.334;3.244;2023-12-29T07:32:02;10.50;99.90
22813;DHT22;11573;51.334;3.244;2023-12-29T07:34:29;10.50;99.90
22813;DHT22;11573;51.334;3.244;2023-12-29T07:36:58;10.50;99.90
22813;DHT22;11573;51.334;3.244;2023-12-29T07:39:26;10.50;99.90
22813;DHT22;11573;51.334;3.244;2023-12-29T07:41:53;10.50;99.90
22813;DHT22;11573;51.334;3.244;2023-12-29T07:44:23;10.50;99.90
22813;DHT22;11573;51.334;3.244;2023-12-29T07:46:50;10.50;99.90
22813;DHT22;11573;51.334;3.244;2023-12-29T07:49:18;10.50;99.90
22813;DHT22;11573;51.334;3.244;2023-12-29T07:51:46;10.50;99.90
22813;DHT22;11573;51.334;3.244;2023-12-29T07:54:14;10.50;99.90
22813;DHT22;11573;51.334;3.244;2023-12-29T07:56:41;10.50;99.90
22813;DHT22;11573;51.334;3.244;2023-12-29T07:59:09;10.50;99.90
22813;DHT22;11573;51.334;3.244;2023-12-29T08:01:36;10.50;99.90
22813;DHT22;11573;51.334;3.244;2023-12-29T08:04:05;10.50;99.90
22813;DHT22;11573;51.334;3.244;2023-12-29T08:06:36;10.50;99.90
22813;DHT22;11573;51.334;3.244;2023-12-29T08:09:04;10.50;99.90
22813;DHT22;11573;51.334;3.244;2023-12-29T08:11:31;10.50;99.90
22813;DHT22;11573;51.334;3.244;2023-12-29T08:13:58;10.50;99.90
22813;DHT22;11573;51.334;3.244;2023-12-29T08:16:25;10.50;99.90
22813;DHT22;11573;51.334;3.244;2023-12-29T08:18:53;10.50;99.90
22813;DHT22;11573;51.334;3.244;2023-12-29T08:21:21;10.50;99.90
22813;DHT22;11573;51.334;3.244;2023-12-29T08:23:49;10.60;99.90
22813;DHT22;11573;51.334;3.244;2023-12-29T08:26:16;10.60;99.90
22813;DHT22;11573;51.334;3.244;2023-12-29T08:28:44;10.70;99.90
22813;DHT22;11573;51.334;3.244;2023-12-29T08:31:14;10.70;99.90
22813;DHT22;11573;51.334;3.244;2023-12-29T08:33:42;10.60;99.90
22813;DHT22;11573;51.334;3.244;2023-12-29T08:36:12;10.60;99.90
22813;DHT22;11573;51.334;3.244;2023-12-29T08:38:39;10.60;99.90
22813;DHT22;11573;51.334;3.244;2023-12-29T08:41:06;10.50;99.90
22813;DHT22;11573;51.334;3.244;2023-12-29T08:43:34;10.50;99.90
22813;DHT22;11573;51.334;3.244;2023-12-29T08:46:03;10.50;99.90
22813;DHT22;11573;51.334;3.244;2023-12-29T08:48:31;10.50;99.90
22813;DHT22;11573;51.334;3.244;2023-12-29T08:50:58;10.50;99.90
22813;DHT22;11573;51.334;3.244;2023-12-29T08:53:26;10.60;99.90
22813;DHT22;11573;51.334;3.244;2023-12-29T08:55:53;10.60;99.90
22813;DHT22;11573;51.334;3.244;2023-12-29T08:58:21;10.60;99.90
22813;DHT22;11573;51.334;3.244;2023-12-29T09:00:48;10.60;99.90
22813;DHT22;11573;51.334;3.244;2023-12-29T09:03:16;10.60;99.90
22813;DHT22;11573;51.334;3.244;2023-12-29T09:05:44;10.60;99.90
22813;DHT22;11573;51.334;3.244;2023-12-29T09:08:11;10.70;99.90
22813;DHT22;11573;51.334;3.244;2023-12-29T09:10:38;10.70;99.90
22813;DHT22;11573;51.334;3.244;2023-12-29T09:13:06;10.70;99.90
22813;DHT22;11573;51.334;3.244;2023-12-29T09:15:33;10.70;99.90
22813;DHT22;11573;51.334;3.244;2023-12-29T09:18:01;10.60;99.90
22813;DHT22;11573;51.334;3.244;2023-12-29T09:20:29;10.70;99.90
22813;DHT22;11573;51.334;3.244;2023-12-29T09:22:58;10.70;99.90
22813;DHT22;11573;51.334;3.244;2023-12-29T09:25:26;10.70;99.90
22813;DHT22;11573;51.334;3.244;2023-12-29T09:27:55;10.80;99.90
22813;DHT22;11573;51.334;3.244;2023-12-29T09:30:22;10.80;99.90
22813;DHT22;11573;51.334;3.244;2023-12-29T09:32:49;10.80;99.90
22813;DHT22;11573;51.334;3.244;2023-12-29T09:35:17;10.80;99.90
22813;DHT22;11573;51.334;3.244;2023-12-29T09:37:44;10.90;99.90
22813;DHT22;11573;51.334;3.244;2023-12-29T09:40:12;10.90;99.90
22813;DHT22;11573;51.334;3.244;2023-12-29T09:42:41;10.90;99.90
22813;DHT22;11573;51.334;3.244;2023-12-29T09:45:11;10.90;99.90
22813;DHT22;11573;51.334;3.244;2023-12-29T09:47:41;10.90;99.90
22813;DHT22;11573;51.334;3.244;2023-12-29T09:50:13;11.00;99.90
22813;DHT22;11573;51.334;3.244;2023-12-29T09:52:40;10.90;99.90
22813;DHT22;11573;51.334;3.244;2023-12-29T09:55:09;11.00;99.90
22813;DHT22;11573;51.334;3.244;2023-12-29T09:57:38;11.00;99.90
22813;DHT22;11573;51.334;3.244;2023-12-29T10:00:10;11.00;99.90
22813;DHT22;11573;51.334;3.244;2023-12-29T10:02:38;11.10;99.90
22813;DHT22;11573;51.334;3.244;2023-12-29T10:05:05;11.10;99.90
22813;DHT22;11573;51.334;3.244;2023-12-29T10:07:36;11.20;99.90
22813;DHT22;11573;51.334;3.244;2023-12-29T10:10:06;11.20;99.90
22813;DHT22;11573;51.334;3.244;2023-12-29T10:12:35;11.30;99.90
22813;DHT22;11573;51.334;3.244;2023-12-29T10:15:05;11.30;99.90
22813;DHT22;11573;51.334;3.244;2023-12-29T10:25:16;11.40;99.90
22813;DHT22;11573;51.334;3.244;2023-12-29T10:27:44;11.40;99.90
22813;DHT22;11573;51.334;3.244;2023-12-29T10:30:12;11.40;99.90
22813;DHT22;11573;51.334;3.244;2023-12-29T10:32:54;11.40;99.90
22813;DHT22;11573;51.334;3.244;2023-12-29T10:35:22;11.30;99.90
22813;DHT22;11573;51.334;3.244;2023-12-29T10:37:52;11.30;99.90
22813;DHT22;11573;51.334;3.244;2023-12-29T10:40:21;11.30;99.90
22813;DHT22;11573;51.334;3.244;2023-12-29T10:42:54;11.30;99.90
22813;DHT22;11573;51.334;3.244;2023-12-29T10:45:22;11.30;99.90
22813;DHT22;11573;51.334;3.244;2023-12-29T10:47:52;11.40;99.90
22813;DHT22;11573;51.334;3.244;2023-12-29T10:50:20;11.50;99.90
22813;DHT22;11573;51.334;3.244;2023-12-29T10:52:48;11.60;99.90
22813;DHT22;11573;51.334;3.244;2023-12-29T10:55:15;11.70;99.90
22813;DHT22;11573;51.334;3.244;2023-12-29T10:57:43;11.70;99.90
22813;DHT22;11573;51.334;3.244;2023-12-29T11:00:10;11.70;99.90
22813;DHT22;11573;51.334;3.244;2023-12-29T11:02:40;11.70;99.90
22813;DHT22;11573;51.334;3.244;2023-12-29T11:05:08;11.60;99.90
22813;DHT22;11573;51.334;3.244;2023-12-29T11:07:37;11.60;99.90
22813;DHT22;11573;51.334;3.244;2023-12-29T11:10:07;11.70;99.90
22813;DHT22;11573;51.334;3.244;2023-12-29T11:12:36;11.80;99.90
22813;DHT22;11573;51.334;3.244;2023-12-29T11:15:05;11.80;99.90
22813;DHT22;11573;51.334;3.244;2023-12-29T11:17:34;11.80;99.90
22813;DHT22;11573;51.334;3.244;2023-12-29T11:20:04;11.80;99.90
22813;DHT22;11573;51.334;3.244;2023-12-29T11:22:32;11.70;99.90
22813;DHT22;11573;51.334;3.244;2023-12-29T11:25:00;11.70;99.90
22813;DHT22;11573;51.334;3.244;2023-12-29T11:27:31;11.80;99.90
22813;DHT22;11573;51.334;3.244;2023-12-29T11:29:59;11.90;99.90
22813;DHT22;11573;51.334;3.244;2023-12-29T11:32:55;12.00;99.90
22813;DHT22;11573;51.334;3.244;2023-12-29T11:43:26;12.30;99.90
22813;DHT22;11573;51.334;3.244;2023-12-29T11:45:54;12.40;99.90
22813;DHT22;11573;51.334;3.244;2023-12-29T11:48:56;12.30;99.90
22813;DHT22;11573;51.334;3.244;2023-12-29T11:51:44;12.40;99.90
22813;DHT22;11573;51.334;3.244;2023-12-29T11:54:24;12.30;99.90
22813;DHT22;11573;51.334;3.244;2023-12-29T11:56:55;12.30;99.90
22813;DHT22;11573;51.334;3.244;2023-12-29T11:59:23;12.10;99.90
22813;DHT22;11573;51.334;3.244;2023-12-29T12:01:53;11.90;99.90
22813;DHT22;11573;51.334;3.244;2023-12-29T12:04:43;11.80;99.90
22813;DHT22;11573;51.334;3.244;2023-12-29T12:09:48;11.80;99.90
22813;DHT22;11573;51.334;3.244;2023-12-29T12:12:39;11.80;99.90
22813;DHT22;11573;51.334;3.244;2023-12-29T12:18:00;11.80;99.90
22813;DHT22;11573;51.334;3.244;2023-12-29T12:20:28;11.80;99.90
22813;DHT22;11573;51.334;3.244;2023-12-29T12:23:19;11.80;99.90
22813;DHT22;11573;51.334;3.244;2023-12-29T12:25:48;11.90;99.90
22813;DHT22;11573;51.334;3.244;2023-12-29T12:28:17;11.90;99.90
22813;DHT22;11573;51.334;3.244;2023-12-29T12:30:45;11.90;99.90
22813;DHT22;11573;51.334;3.244;2023-12-29T12:33:13;11.90;99.90
22813;DHT22;11573;51.334;3.244;2023-12-29T12:35:41;12.00;99.90
22813;DHT22;11573;51.334;3.244;2023-12-29T12:38:16;12.00;99.90
22813;DHT22;11573;51.334;3.244;2023-12-29T12:40:51;12.00;99.90
22813;DHT22;11573;51.334;3.244;2023-12-29T12:43:20;12.00;99.90
22813;DHT22;11573;51.334;3.244;2023-12-29T12:46:00;11.90;99.90
22813;DHT22;11573;51.334;3.244;2023-12-29T12:48:43;11.80;99.90
22813;DHT22;11573;51.334;3.244;2023-12-29T12:51:12;11.70;99.90
22813;DHT22;11573;51.334;3.244;2023-12-29T12:53:43;11.80;99.90
22813;DHT22;11573;51.334;3.244;2023-12-29T12:56:15;11.80;99.90
22813;DHT22;11573;51.334;3.244;2023-12-29T12:58:43;11.90;99.90
22813;DHT22;11573;51.334;3.244;2023-12-29T13:01:11;11.90;99.90
22813;DHT22;11573;51.334;3.244;2023-12-29T13:03:39;12.00;99.90
22813;DHT22;11573;51.334;3.244;2023-12-29T13:06:07;12.00;99.90
22813;DHT22;11573;51.334;3.244;2023-12-29T13:08:35;12.00;99.90
22813;DHT22;11573;51.334;3.244;2023-12-29T13:11:09;12.00;99.90
22813;DHT22;11573;51.334;3.244;2023-12-29T13:13:41;12.00;99.90
22813;DHT22;11573;51.334;3.244;2023-12-29T13:16:10;12.10;99.90
22813;DHT22;11573;51.334;3.244;2023-12-29T13:18:37;12.20;99.90
22813;DHT22;11573;51.334;3.244;2023-12-29T13:21:06;12.20;99.90
22813;DHT22;11573;51.334;3.244;2023-12-29T13:23:35;12.10;99.90
22813;DHT22;11573;51.334;3.244;2023-12-29T13:26:06;12.10;99.90
22813;DHT22;11573;51.334;3.244;2023-12-29T13:28:36;12.10;99.90
22813;DHT22;11573;51.334;3.244;2023-12-29T13:31:09;12.00;99.90
22813;DHT22;11573;51.334;3.244;2023-12-29T13:33:50;12.00;99.90
22813;DHT22;11573;51.334;3.244;2023-12-29T13:36:42;12.00;99.90
22813;DHT22;11573;51.334;3.244;2023-12-29T13:39:42;12.00;99.90
22813;DHT22;11573;51.334;3.244;2023-12-29T13:42:13;11.90;99.90
22813;DHT22;11573;51.334;3.244;2023-12-29T13:44:44;11.90;99.90
22813;DHT22;11573;51.334;3.244;2023-12-29T13:47:15;11.90;99.90
22813;DHT22;11573;51.334;3.244;2023-12-29T13:49:42;11.90;99.90
22813;DHT22;11573;51.334;3.244;2023-12-29T13:52:10;11.80;99.90
22813;DHT22;11573;51.334;3.244;2023-12-29T13:54:41;11.90;99.90
22813;DHT22;11573;51.334;3.244;2023-12-29T13:57:11;11.80;99.90
22813;DHT22;11573;51.334;3.244;2023-12-29T13:59:38;11.90;99.90
22813;DHT22;11573;51.334;3.244;2023-12-29T14:02:23;12.00;99.90
22813;DHT22;11573;51.334;3.244;2023-12-29T14:08:10;12.10;99.90
22813;DHT22;11573;51.334;3.244;2023-12-29T14:10:43;12.10;99.90
22813;DHT22;11573;51.334;3.244;2023-12-29T14:13:15;12.20;99.90
22813;DHT22;11573;51.334;3.244;2023-12-29T14:15:44;12.20;99.90
22813;DHT22;11573;51.334;3.244;2023-12-29T14:20:39;12.00;99.90
22813;DHT22;11573;51.334;3.244;2023-12-29T14:23:10;12.00;99.90
22813;DHT22;11573;51.334;3.244;2023-12-29T14:25:37;12.00;99.90
22813;DHT22;11573;51.334;3.244;2023-12-29T14:28:15;12.00;99.90
22813;DHT22;11573;51.334;3.244;2023-12-29T14:30:43;12.00;99.90
22813;DHT22;11573;51.334;3.244;2023-12-29T14:33:11;12.00;99.90
22813;DHT22;11573;51.334;3.244;2023-12-29T14:35:38;12.00;99.90
22813;DHT22;11573;51.334;3.244;2023-12-29T14:38:05;11.90;99.90
22813;DHT22;11573;51.334;3.244;2023-12-29T14:40:33;12.00;99.90
22813;DHT22;11573;51.334;3.244;2023-12-29T14:43:03;11.90;99.90
22813;DHT22;11573;51.334;3.244;2023-12-29T14:45:30;11.90;99.90
22813;DHT22;11573;51.334;3.244;2023-12-29T14:48:00;11.90;99.90
22813;DHT22;11573;51.334;3.244;2023-12-29T14:50:28;11.90;99.90
22813;DHT22;11573;51.334;3.244;2023-12-29T14:52:55;11.80;99.90
22813;DHT22;11573;51.334;3.244;2023-12-29T14:55:22;11.80;99.90
22813;DHT22;11573;51.334;3.244;2023-12-29T14:57:51;11.80;99.90
22813;DHT22;11573;51.334;3.244;2023-12-29T15:00:18;11.80;99.90
22813;DHT22;11573;51.334;3.244;2023-12-29T15:02:45;11.80;99.90
22813;DHT22;11573;51.334;3.244;2023-12-29T15:05:12;11.70;99.90
22813;DHT22;11573;51.334;3.244;2023-12-29T15:07:39;11.70;99.90
22813;DHT22;11573;51.334;3.244;2023-12-29T15:10:07;11.60;99.90
22813;DHT22;11573;51.334;3.244;2023-12-29T15:12:34;11.70;99.90
22813;DHT22;11573;51.334;3.244;2023-12-29T15:15:01;11.70;99.90
22813;DHT22;11573;51.334;3.244;2023-12-29T15:17:29;11.60;99.90
22813;DHT22;11573;51.334;3.244;2023-12-29T15:19:57;11.60;99.90
22813;DHT22;11573;51.334;3.244;2023-12-29T15:22:25;11.60;99.90
22813;DHT22;11573;51.334;3.244;2023-12-29T15:24:53;11.60;99.90
22813;DHT22;11573;51.334;3.244;2023-12-29T15:27:20;11.60;99.90
22813;DHT22;11573;51.334;3.244;2023-12-29T15:29:48;11.50;99.90
22813;DHT22;11573;51.334;3.244;2023-12-29T15:32:15;11.50;99.90
22813;DHT22;11573;51.334;3.244;2023-12-29T15:34:42;11.40;99.90
22813;DHT22;11573;51.334;3.244;2023-12-29T15:37:10;11.40;99.90
22813;DHT22;11573;51.334;3.244;2023-12-29T15:39:40;11.40;99.90
22813;DHT22;11573;51.334;3.244;2023-12-29T15:42:08;11.40;99.90
22813;DHT22;11573;51.334;3.244;2023-12-29T15:44:36;11.40;99.90
22813;DHT22;11573;51.334;3.244;2023-12-29T15:47:03;11.40;99.90
22813;DHT22;11573;51.334;3.244;2023-12-29T15:49:30;11.40;99.90
22813;DHT22;11573;51.334;3.244;2023-12-29T15:51:58;11.40;99.90
22813;DHT22;11573;51.334;3.244;2023-12-29T15:54:26;11.50;99.90
22813;DHT22;11573;51.334;3.244;2023-12-29T15:56:55;11.40;99.90
22813;DHT22;11573;51.334;3.244;2023-12-29T15:59:22;11.40;99.90
22813;DHT22;11573;51.334;3.244;2023-12-29T16:01:50;11.30;99.90
22813;DHT22;11573;51.334;3.244;2023-12-29T16:04:17;11.30;99.90
22813;DHT22;11573;51.334;3.244;2023-12-29T16:06:45;11.30;99.90
22813;DHT22;11573;51.334;3.244;2023-12-29T16:09:12;11.20;99.90